Time;durP1;ratioP1;P1;durP2;ratioP2;P2;SDS_P1;SDS_P2;PMS_P1;PMS_P2;Temp;Humidity;BMP_temperature;BMP_pressure;BME280_temperature;BME280_humidity;BME280_pressure;Samples;Min_cycle;Max_cycle;Signal;HPM_P1;HPM_P2
2022/10/28 00:02:13;;;;;;;20.27;10.05;;;;;;;;;;5107252;28;20524;-73
2022/10/28 00:04:39;;;;;;;20.52;11.18;;;;;;;;;;5106873;28;20044;-71
2022/10/28 00:07:05;;;;;;;17.17;10.85;;;;;;;;;;5104447;28;20050;-72
2022/10/28 00:09:31;;;;;;;24.25;11.20;;;;;;;;;;5084885;28;20047;-71
2022/10/28 00:11:57;;;;;;;15.88;10.65;;;;;;;;;;5104630;28;20043;-72
2022/10/28 00:14:24;;;;;;;24.70;11.00;;;;;;;;;;5105324;28;20054;-72
2022/10/28 00:16:50;;;;;;;19.40;10.93;;;;;;;;;;5105530;28;20758;-72
2022/10/28 00:19:16;;;;;;;18.10;11.05;;;;;;;;;;5107336;28;20044;-71
2022/10/28 00:21:42;;;;;;;16.90;10.57;;;;;;;;;;5108682;28;20093;-71
2022/10/28 00:24:09;;;;;;;18.48;11.00;;;;;;;;;;5106369;28;20130;-72
2022/10/28 00:26:36;;;;;;;19.38;11.52;;;;;;;;;;5106056;28;20043;-71
2022/10/28 00:29:06;;;;;;;21.23;11.52;;;;;;;;;;5087028;28;20052;-71
2022/10/28 00:31:33;;;;;;;25.65;11.50;;;;;;;;;;5106413;28;20075;-71
2022/10/28 00:34:00;;;;;;;22.75;12.13;;;;;;;;;;5106650;28;20097;-72
2022/10/28 00:36:28;;;;;;;22.17;12.52;;;;;;;;;;5107634;28;20032;-72
2022/10/28 00:38:54;;;;;;;20.08;11.32;;;;;;;;;;5105717;28;20051;-71
2022/10/28 00:41:22;;;;;;;21.42;11.40;;;;;;;;;;5104223;28;20448;-71
2022/10/28 00:43:50;;;;;;;19.42;11.20;;;;;;;;;;5085943;28;20043;-71
2022/10/28 00:46:19;;;;;;;26.17;12.27;;;;;;;;;;5106073;28;20043;-73
2022/10/28 00:48:47;;;;;;;18.95;11.90;;;;;;;;;;5107597;28;20100;-73
2022/10/28 00:51:13;;;;;;;22.17;12.93;;;;;;;;;;5111500;28;20086;-73
2022/10/28 00:53:41;;;;;;;22.15;12.57;;;;;;;;;;5113791;28;20044;-72
2022/10/28 00:56:08;;;;;;;19.65;12.32;;;;;;;;;;5110672;28;20053;-72
2022/10/28 00:58:34;;;;;;;25.65;13.50;;;;;;;;;;5111896;28;20067;-72
2022/10/28 01:01:00;;;;;;;20.38;13.05;;;;;;;;;;5112040;28;20047;-72
2022/10/28 01:03:26;;;;;;;21.17;12.27;;;;;;;;;;5112380;28;20389;-72
2022/10/28 01:05:52;;;;;;;21.63;12.32;;;;;;;;;;5111330;28;20039;-72
2022/10/28 01:08:18;;;;;;;23.55;12.52;;;;;;;;;;5110625;28;20036;-72
2022/10/28 01:11:05;;;;;;;21.77;12.65;;;;;;;;;;5108132;28;20040;-71
2022/10/28 01:13:47;;;;;;;23.65;12.82;;;;;;;;;;5113039;28;20059;-72
2022/10/28 01:16:32;;;;;;;21.58;13.32;;;;;;;;;;5098111;28;20051;-72
2022/10/28 01:19:03;;;;;;;20.25;12.95;;;;;;;;;;5104888;28;20436;-72
2022/10/28 01:21:38;;;;;;;19.70;12.07;;;;;;;;;;5092209;28;20130;-72
2022/10/28 01:24:13;;;;;;;20.70;12.65;;;;;;;;;;5113396;28;20139;-72
2022/10/28 01:26:39;;;;;;;21.52;12.63;;;;;;;;;;5111809;28;20082;-72
2022/10/28 01:29:12;;;;;;;29.00;12.63;;;;;;;;;;5110684;28;20079;-73
2022/10/28 01:31:41;;;;;;;21.83;13.13;;;;;;;;;;5113555;28;20118;-72
2022/10/28 01:34:25;;;;;;;22.38;12.60;;;;;;;;;;5111050;28;20075;-71
2022/10/28 01:36:57;;;;;;;20.27;12.40;;;;;;;;;;5112768;28;20035;-73
2022/10/28 01:39:26;;;;;;;18.90;12.60;;;;;;;;;;5090204;28;20043;-71
2022/10/28 01:41:57;;;;;;;21.05;12.30;;;;;;;;;;5109878;28;20549;-72
2022/10/28 01:44:23;;;;;;;22.42;12.30;;;;;;;;;;5106769;28;20169;-71
2022/10/28 01:47:03;;;;;;;22.10;11.90;;;;;;;;;;5109215;28;20126;-71
2022/10/28 01:49:33;;;;;;;19.90;12.05;;;;;;;;;;5108520;28;20505;-73
2022/10/28 01:52:04;;;;;;;21.40;12.35;;;;;;;;;;5108657;28;20394;-72
2022/10/28 01:54:32;;;;;;;22.77;12.95;;;;;;;;;;5113003;28;20113;-72
2022/10/28 01:56:59;;;;;;;21.30;12.32;;;;;;;;;;5092558;28;20374;-73
2022/10/28 01:59:26;;;;;;;24.48;12.43;;;;;;;;;;5112185;28;20047;-72
2022/10/28 02:01:53;;;;;;;22.70;12.00;;;;;;;;;;5109585;28;20081;-72
2022/10/28 02:04:19;;;;;;;25.30;12.75;;;;;;;;;;5092171;28;20521;-72
2022/10/28 02:06:47;;;;;;;19.95;12.27;;;;;;;;;;5111764;28;20042;-71
2022/10/28 02:09:21;;;;;;;21.27;13.90;;;;;;;;;;5110943;28;20085;-71
2022/10/28 02:12:06;;;;;;;24.58;13.60;;;;;;;;;;5092799;28;20051;-72
2022/10/28 02:14:48;;;;;;;25.88;13.45;;;;;;;;;;5097752;28;20051;-73
2022/10/28 02:17:14;;;;;;;21.65;13.10;;;;;;;;;;5110259;28;20061;-73
2022/10/28 02:19:48;;;;;;;22.85;12.63;;;;;;;;;;5111331;28;20398;-72
2022/10/28 02:22:17;;;;;;;21.27;13.10;;;;;;;;;;5092030;28;20512;-73
2022/10/28 02:24:54;;;;;;;25.10;13.13;;;;;;;;;;5109048;28;20051;-72
2022/10/28 02:27:32;;;;;;;20.23;12.82;;;;;;;;;;5110743;28;20055;-72
2022/10/28 02:30:01;;;;;;;20.70;12.73;;;;;;;;;;5110361;28;20067;-72
2022/10/28 02:32:29;;;;;;;21.48;12.88;;;;;;;;;;5112263;28;20035;-72
2022/10/28 02:34:57;;;;;;;22.85;12.93;;;;;;;;;;5111327;28;20114;-72
2022/10/28 02:37:26;;;;;;;22.63;13.38;;;;;;;;;;5110871;28;20039;-72
2022/10/28 02:39:55;;;;;;;22.65;13.73;;;;;;;;;;5109432;28;20092;-72
2022/10/28 02:42:23;;;;;;;24.45;13.48;;;;;;;;;;5102488;28;20047;-72
2022/10/28 02:44:53;;;;;;;20.73;13.50;;;;;;;;;;5092393;28;20553;-72
2022/10/28 02:47:23;;;;;;;24.95;13.57;;;;;;;;;;5108931;28;20055;-72
2022/10/28 02:49:53;;;;;;;27.70;14.18;;;;;;;;;;5093243;28;20083;-72
2022/10/28 02:52:20;;;;;;;29.17;13.88;;;;;;;;;;5109398;28;20101;-73
2022/10/28 02:54:54;;;;;;;21.52;13.95;;;;;;;;;;5109046;28;20127;-72
2022/10/28 02:57:22;;;;;;;25.15;14.20;;;;;;;;;;5098238;28;20040;-71
2022/10/28 02:59:52;;;;;;;22.52;14.25;;;;;;;;;;5111421;28;20059;-71
2022/10/28 03:02:18;;;;;;;22.42;13.60;;;;;;;;;;5110371;28;20042;-72
2022/10/28 03:04:44;;;;;;;22.58;13.30;;;;;;;;;;5115508;28;20085;-72
2022/10/28 03:07:10;;;;;;;21.58;13.65;;;;;;;;;;5115410;28;20039;-72
2022/10/28 03:09:36;;;;;;;25.08;13.80;;;;;;;;;;5114887;28;20043;-72
2022/10/28 03:12:03;;;;;;;23.95;13.90;;;;;;;;;;5113801;28;20044;-72
2022/10/28 03:14:29;;;;;;;25.33;14.27;;;;;;;;;;5095905;28;20476;-72
2022/10/28 03:16:55;;;;;;;18.63;13.95;;;;;;;;;;5114174;28;20043;-72
2022/10/28 03:19:21;;;;;;;21.10;13.70;;;;;;;;;;5115410;28;20039;-72
2022/10/28 03:21:47;;;;;;;23.65;14.02;;;;;;;;;;5113531;28;20047;-72
2022/10/28 03:24:13;;;;;;;25.35;13.55;;;;;;;;;;5113075;28;20436;-72
2022/10/28 03:26:39;;;;;;;27.83;14.45;;;;;;;;;;5114900;28;20040;-72
2022/10/28 03:29:05;;;;;;;19.10;13.43;;;;;;;;;;5113328;28;20448;-71
2022/10/28 03:31:31;;;;;;;21.85;13.82;;;;;;;;;;5096824;28;20043;-72
2022/10/28 03:33:57;;;;;;;21.65;14.23;;;;;;;;;;5096074;28;20044;-72
2022/10/28 03:36:23;;;;;;;23.85;14.43;;;;;;;;;;5095533;28;20516;-72
2022/10/28 03:38:49;;;;;;;25.15;13.65;;;;;;;;;;5114702;28;20043;-71
2022/10/28 03:41:15;;;;;;;24.65;14.13;;;;;;;;;;5113495;28;20040;-72
2022/10/28 03:43:41;;;;;;;25.63;14.15;;;;;;;;;;5115720;28;20047;-72
2022/10/28 03:46:07;;;;;;;24.90;14.93;;;;;;;;;;5110568;28;20401;-72
2022/10/28 03:48:33;;;;;;;27.05;13.75;;;;;;;;;;5096531;28;20501;-71
2022/10/28 03:50:59;;;;;;;20.13;12.93;;;;;;;;;;5112251;28;20051;-71
2022/10/28 03:53:25;;;;;;;25.77;13.15;;;;;;;;;;5112039;28;20048;-72
2022/10/28 03:55:55;;;;;;;22.88;13.90;;;;;;;;;;5113179;28;20396;-72
2022/10/28 03:58:21;;;;;;;20.92;13.30;;;;;;;;;;5113626;28;20052;-72
2022/10/28 04:00:50;;;;;;;23.95;13.38;;;;;;;;;;5112190;28;20051;-72
2022/10/28 04:03:17;;;;;;;20.95;13.48;;;;;;;;;;5114230;28;20044;-72
2022/10/28 04:05:43;;;;;;;20.45;14.00;;;;;;;;;;5112960;28;20035;-72
2022/10/28 04:08:10;;;;;;;24.15;14.52;;;;;;;;;;5114308;28;20038;-72
2022/10/28 04:10:36;;;;;;;22.38;14.63;;;;;;;;;;5114189;28;20397;-72
2022/10/28 04:13:03;;;;;;;22.73;14.43;;;;;;;;;;5111888;28;20101;-72
2022/10/28 04:15:29;;;;;;;23.27;14.52;;;;;;;;;;5112151;28;20036;-72
2022/10/28 04:17:55;;;;;;;26.88;15.13;;;;;;;;;;5112607;28;20516;-71
2022/10/28 04:20:22;;;;;;;30.23;15.27;;;;;;;;;;5113656;28;20047;-71
2022/10/28 04:22:48;;;;;;;24.50;14.98;;;;;;;;;;5111732;28;20567;-72
2022/10/28 04:25:14;;;;;;;24.45;14.80;;;;;;;;;;5111956;28;20035;-72
2022/10/28 04:27:40;;;;;;;22.33;15.13;;;;;;;;;;5113268;28;20047;-72
2022/10/28 04:30:06;;;;;;;25.50;14.50;;;;;;;;;;5111803;28;20036;-72
2022/10/28 04:32:32;;;;;;;21.48;13.95;;;;;;;;;;5107424;28;20386;-72
2022/10/28 04:34:58;;;;;;;26.67;14.02;;;;;;;;;;5111218;28;20048;-72
2022/10/28 04:37:24;;;;;;;25.83;14.50;;;;;;;;;;5113921;28;20044;-72
2022/10/28 04:39:50;;;;;;;23.73;14.18;;;;;;;;;;5113928;28;20393;-72
2022/10/28 04:42:16;;;;;;;23.27;13.82;;;;;;;;;;5113755;28;20070;-71
2022/10/28 04:44:42;;;;;;;23.05;14.13;;;;;;;;;;5112325;28;20043;-72
2022/10/28 04:47:08;;;;;;;26.00;13.32;;;;;;;;;;5111161;28;20036;-72
2022/10/28 04:49:34;;;;;;;23.58;14.18;;;;;;;;;;5092341;28;20397;-72
2022/10/28 04:52:00;;;;;;;23.08;13.18;;;;;;;;;;5112399;28;20685;-72
2022/10/28 04:54:26;;;;;;;26.63;14.70;;;;;;;;;;5112912;28;20485;-72
2022/10/28 04:56:54;;;;;;;25.35;14.63;;;;;;;;;;5114049;28;20036;-72
2022/10/28 04:59:20;;;;;;;22.02;13.68;;;;;;;;;;5092596;28;20062;-72
2022/10/28 05:01:46;;;;;;;19.00;13.18;;;;;;;;;;5112024;28;20039;-72
2022/10/28 05:04:12;;;;;;;26.23;13.77;;;;;;;;;;5110787;28;20089;-72
2022/10/28 05:06:38;;;;;;;26.25;14.00;;;;;;;;;;5108367;28;20088;-72
2022/10/28 05:09:04;;;;;;;22.58;14.48;;;;;;;;;;5114096;28;20055;-71
2022/10/28 05:11:30;;;;;;;24.50;14.30;;;;;;;;;;5114081;28;20044;-72
2022/10/28 05:13:56;;;;;;;27.30;14.45;;;;;;;;;;5095569;28;20056;-72
2022/10/28 05:16:22;;;;;;;27.48;14.48;;;;;;;;;;5088545;28;20397;-73
2022/10/28 05:18:48;;;;;;;25.23;14.57;;;;;;;;;;5113277;28;20055;-72
2022/10/28 05:21:14;;;;;;;22.60;13.63;;;;;;;;;;5113577;28;20048;-71
2022/10/28 05:23:40;;;;;;;25.05;14.23;;;;;;;;;;5112555;28;20440;-72
2022/10/28 05:26:06;;;;;;;22.63;13.55;;;;;;;;;;5106274;28;20089;-72
2022/10/28 05:28:32;;;;;;;27.33;14.18;;;;;;;;;;5109863;28;20051;-72
2022/10/28 05:30:58;;;;;;;23.77;14.48;;;;;;;;;;5105802;28;20051;-72
2022/10/28 05:33:24;;;;;;;27.45;14.07;;;;;;;;;;5105716;28;20045;-72
2022/10/28 05:35:50;;;;;;;26.15;13.88;;;;;;;;;;5113396;28;20477;-71
2022/10/28 05:38:16;;;;;;;26.23;14.15;;;;;;;;;;5113469;28;20424;-72
2022/10/28 05:40:42;;;;;;;27.60;14.68;;;;;;;;;;5110794;28;20032;-72
2022/10/28 05:43:09;;;;;;;23.95;14.23;;;;;;;;;;5110150;28;20489;-72
2022/10/28 05:45:35;;;;;;;19.85;12.52;;;;;;;;;;5105056;27;20062;-71
2022/10/28 05:48:01;;;;;;;23.08;14.40;;;;;;;;;;5110690;28;20477;-72
2022/10/28 05:50:27;;;;;;;22.10;14.05;;;;;;;;;;5108255;28;20386;-72
2022/10/28 05:52:54;;;;;;;26.42;13.98;;;;;;;;;;5112328;28;20108;-72
2022/10/28 05:55:21;;;;;;;23.27;14.25;;;;;;;;;;5113136;28;20044;-72
2022/10/28 05:57:48;;;;;;;22.88;13.48;;;;;;;;;;5113902;28;20039;-72
2022/10/28 06:00:15;;;;;;;24.83;13.57;;;;;;;;;;5113676;28;20066;-72
2022/10/28 06:02:41;;;;;;;21.75;13.18;;;;;;;;;;5110766;28;20412;-73
2022/10/28 06:05:07;;;;;;;23.50;13.65;;;;;;;;;;5109140;28;20063;-72
2022/10/28 06:07:33;;;;;;;24.20;14.82;;;;;;;;;;5110920;28;20051;-72
2022/10/28 06:10:00;;;;;;;26.67;13.68;;;;;;;;;;5095415;28;20074;-72
2022/10/28 06:12:26;;;;;;;23.88;13.80;;;;;;;;;;5112461;28;20036;-71
2022/10/28 06:14:52;;;;;;;24.67;13.48;;;;;;;;;;5113016;28;20047;-72
2022/10/28 06:17:18;;;;;;;22.85;12.50;;;;;;;;;;5092363;28;20089;-72
2022/10/28 06:19:44;;;;;;;25.48;13.73;;;;;;;;;;5110415;28;20035;-73
2022/10/28 06:22:11;;;;;;;19.80;13.20;;;;;;;;;;5112251;28;20116;-72
2022/10/28 06:24:37;;;;;;;20.73;12.10;;;;;;;;;;5107302;28;20036;-72
2022/10/28 06:27:03;;;;;;;22.60;12.60;;;;;;;;;;5111592;28;20039;-73
2022/10/28 06:29:31;;;;;;;22.17;12.93;;;;;;;;;;5093366;28;20055;-72
2022/10/28 06:31:57;;;;;;;20.48;12.85;;;;;;;;;;5111911;28;20059;-72
2022/10/28 06:34:23;;;;;;;25.45;13.20;;;;;;;;;;5107499;28;20058;-72
2022/10/28 06:36:49;;;;;;;21.13;13.23;;;;;;;;;;5110707;28;20042;-73
2022/10/28 06:39:15;;;;;;;23.05;12.68;;;;;;;;;;5112875;28;20083;-72
2022/10/28 06:41:41;;;;;;;20.80;13.05;;;;;;;;;;5094552;28;20040;-72
2022/10/28 06:44:07;;;;;;;19.23;12.50;;;;;;;;;;5112389;28;20060;-74
2022/10/28 06:46:33;;;;;;;23.08;11.98;;;;;;;;;;5096983;28;20046;-73
2022/10/28 06:49:02;;;;;;;17.35;10.80;;;;;;;;;;5100867;28;20456;-73
2022/10/28 06:51:29;;;;;;;22.20;11.68;;;;;;;;;;5092135;28;20052;-73
2022/10/28 06:53:55;;;;;;;17.65;10.98;;;;;;;;;;5092185;28;20101;-73
2022/10/28 06:56:21;;;;;;;24.70;12.52;;;;;;;;;;5109734;28;20373;-71
2022/10/28 06:58:51;;;;;;;24.23;12.63;;;;;;;;;;5111798;28;20068;-73
2022/10/28 07:01:17;;;;;;;21.90;12.82;;;;;;;;;;5112282;28;20051;-73
2022/10/28 07:03:43;;;;;;;27.35;13.00;;;;;;;;;;5110574;28;20145;-73
2022/10/28 07:06:09;;;;;;;23.60;13.18;;;;;;;;;;5110332;28;20416;-73
2022/10/28 07:08:35;;;;;;;24.17;12.88;;;;;;;;;;5109731;28;20047;-73
2022/10/28 07:11:01;;;;;;;23.88;13.05;;;;;;;;;;5112216;28;20043;-72
2022/10/28 07:13:28;;;;;;;24.48;13.40;;;;;;;;;;5110962;28;20445;-72
2022/10/28 07:15:58;;;;;;;21.88;12.88;;;;;;;;;;5103208;28;20413;-72
2022/10/28 07:18:26;;;;;;;23.38;12.55;;;;;;;;;;5096733;28;20043;-72
2022/10/28 07:20:52;;;;;;;18.67;12.27;;;;;;;;;;5110749;28;20515;-73
2022/10/28 07:23:18;;;;;;;23.02;12.93;;;;;;;;;;5110370;28;20489;-72
2022/10/28 07:25:51;;;;;;;21.17;12.40;;;;;;;;;;5093095;28;20405;-72
2022/10/28 07:28:17;;;;;;;18.95;12.40;;;;;;;;;;5109579;28;20405;-71
2022/10/28 07:30:43;;;;;;;23.70;11.93;;;;;;;;;;5094255;28;20477;-72
2022/10/28 07:33:09;;;;;;;21.33;11.75;;;;;;;;;;5112128;28;20043;-72
2022/10/28 07:35:34;;;;;;;16.73;10.38;;;;;;;;;;5111870;28;20047;-72
2022/10/28 07:38:00;;;;;;;20.38;11.32;;;;;;;;;;5112000;28;20083;-73
2022/10/28 07:40:27;;;;;;;18.20;11.10;;;;;;;;;;5112002;28;20438;-73
2022/10/28 07:42:53;;;;;;;19.10;11.27;;;;;;;;;;5111805;28;20046;-72
2022/10/28 07:45:19;;;;;;;22.75;11.60;;;;;;;;;;5112142;28;20048;-72
2022/10/28 07:47:45;;;;;;;22.63;10.70;;;;;;;;;;5092210;28;20042;-72
2022/10/28 07:50:12;;;;;;;21.55;11.18;;;;;;;;;;5075995;28;20043;-72
2022/10/28 07:52:38;;;;;;;22.67;11.32;;;;;;;;;;5097495;28;20431;-73
2022/10/28 07:55:05;;;;;;;18.63;10.60;;;;;;;;;;5115256;28;20051;-72
2022/10/28 07:57:31;;;;;;;22.55;10.32;;;;;;;;;;5110883;28;20047;-72
2022/10/28 07:59:57;;;;;;;17.27;10.40;;;;;;;;;;5115347;28;20558;-73
2022/10/28 08:02:24;;;;;;;17.45;10.25;;;;;;;;;;5114858;28;20048;-72
2022/10/28 08:04:50;;;;;;;15.65;8.90;;;;;;;;;;5115171;28;20055;-72
2022/10/28 08:07:17;;;;;;;23.45;9.73;;;;;;;;;;5114615;28;20054;-72
2022/10/28 08:09:43;;;;;;;16.95;8.85;;;;;;;;;;5114782;28;20032;-72
2022/10/28 08:12:12;;;;;;;16.05;9.25;;;;;;;;;;5078577;28;20073;-73
2022/10/28 08:14:38;;;;;;;20.23;9.65;;;;;;;;;;5115048;28;20044;-72
2022/10/28 08:17:04;;;;;;;21.23;9.48;;;;;;;;;;5115234;28;20052;-72
2022/10/28 08:19:30;;;;;;;17.88;8.70;;;;;;;;;;5114475;28;20036;-72
2022/10/28 08:21:56;;;;;;;19.13;8.13;;;;;;;;;;5112235;28;20036;-73
2022/10/28 08:24:22;;;;;;;20.63;8.75;;;;;;;;;;5113553;28;20047;-72
2022/10/28 08:26:48;;;;;;;17.23;8.45;;;;;;;;;;5114316;28;20036;-72
2022/10/28 08:29:15;;;;;;;16.35;8.15;;;;;;;;;;5114787;28;20443;-72
2022/10/28 08:31:41;;;;;;;21.80;8.65;;;;;;;;;;5115113;28;20469;-72
2022/10/28 08:34:07;;;;;;;17.73;8.00;;;;;;;;;;5113047;28;20036;-73
2022/10/28 08:36:33;;;;;;;19.73;8.65;;;;;;;;;;5096021;28;20039;-73
2022/10/28 08:39:00;;;;;;;16.55;7.63;;;;;;;;;;5114458;28;20116;-72
2022/10/28 08:41:29;;;;;;;16.90;8.02;;;;;;;;;;5113868;28;20050;-73
2022/10/28 08:43:55;;;;;;;20.63;8.75;;;;;;;;;;5114552;28;20043;-73
2022/10/28 08:46:28;;;;;;;17.67;7.35;;;;;;;;;;5096174;28;20051;-73
2022/10/28 08:48:54;;;;;;;18.20;7.18;;;;;;;;;;5114557;28;20135;-73
2022/10/28 08:51:23;;;;;;;14.68;6.85;;;;;;;;;;5114394;28;20139;-73
2022/10/28 08:53:57;;;;;;;17.85;7.45;;;;;;;;;;5114504;28;20039;-72
2022/10/28 08:56:24;;;;;;;15.15;7.43;;;;;;;;;;5112948;28;20092;-72
2022/10/28 08:58:53;;;;;;;15.70;7.72;;;;;;;;;;5112217;28;20054;-73
2022/10/28 09:01:24;;;;;;;18.40;8.15;;;;;;;;;;5111811;28;20602;-73
2022/10/28 09:03:52;;;;;;;20.38;7.10;;;;;;;;;;5112821;28;20077;-73
2022/10/28 09:06:18;;;;;;;16.88;7.18;;;;;;;;;;5112795;28;20042;-73
2022/10/28 09:08:48;;;;;;;17.55;7.13;;;;;;;;;;5114032;28;20044;-73
2022/10/28 09:11:32;;;;;;;19.23;7.45;;;;;;;;;;5114198;28;20058;-72
2022/10/28 09:14:05;;;;;;;16.80;6.85;;;;;;;;;;5113642;28;20052;-72
2022/10/28 09:16:45;;;;;;;17.10;6.70;;;;;;;;;;5113830;28;20100;-72
2022/10/28 09:19:29;;;;;;;23.25;7.72;;;;;;;;;;5113975;28;20071;-72
2022/10/28 09:22:03;;;;;;;23.05;7.50;;;;;;;;;;5113715;28;20501;-72
2022/10/28 09:24:41;;;;;;;20.05;7.22;;;;;;;;;;5113692;28;20044;-72
2022/10/28 09:27:24;;;;;;;15.70;6.95;;;;;;;;;;5113472;28;20087;-72
2022/10/28 09:29:53;;;;;;;19.52;6.80;;;;;;;;;;5113639;28;20515;-72
2022/10/28 09:32:19;;;;;;;21.30;6.70;;;;;;;;;;5113424;28;20521;-72
2022/10/28 09:34:54;;;;;;;19.55;7.22;;;;;;;;;;5113360;28;20177;-72
2022/10/28 09:37:22;;;;;;;17.23;6.28;;;;;;;;;;5104090;28;20047;-72
2022/10/28 09:39:50;;;;;;;23.63;7.45;;;;;;;;;;5102776;28;20123;-72
2022/10/28 09:42:20;;;;;;;23.92;7.40;;;;;;;;;;5092692;28;20089;-71
2022/10/28 09:44:49;;;;;;;22.90;7.30;;;;;;;;;;5112395;28;20046;-72
2022/10/28 09:47:16;;;;;;;22.42;6.70;;;;;;;;;;5112801;28;20039;-71
2022/10/28 09:49:43;;;;;;;22.27;7.20;;;;;;;;;;5112500;28;20054;-71
2022/10/28 09:52:18;;;;;;;16.80;6.90;;;;;;;;;;5112311;28;20075;-71
2022/10/28 09:54:46;;;;;;;18.08;6.68;;;;;;;;;;5088165;28;20537;-72
2022/10/28 09:57:12;;;;;;;17.38;7.03;;;;;;;;;;5107083;28;20036;-71
2022/10/28 09:59:38;;;;;;;17.00;6.50;;;;;;;;;;5111061;28;20067;-72
2022/10/28 10:02:04;;;;;;;19.77;7.07;;;;;;;;;;5090815;28;20072;-71
2022/10/28 10:04:31;;;;;;;20.08;6.75;;;;;;;;;;5092816;28;20051;-71
2022/10/28 10:06:59;;;;;;;15.75;7.07;;;;;;;;;;5107437;28;20067;-71
2022/10/28 10:09:27;;;;;;;15.30;6.20;;;;;;;;;;5111337;28;20082;-72
2022/10/28 10:11:55;;;;;;;18.85;6.25;;;;;;;;;;5109759;28;20040;-72
2022/10/28 10:14:34;;;;;;;15.32;6.15;;;;;;;;;;5092279;28;20048;-71
2022/10/28 10:17:03;;;;;;;17.95;6.57;;;;;;;;;;5092591;28;20104;-71
2022/10/28 10:19:49;;;;;;;18.08;6.65;;;;;;;;;;5092166;28;20051;-71
2022/10/28 10:22:28;;;;;;;21.80;6.22;;;;;;;;;;5110656;28;20147;-71
2022/10/28 10:24:54;;;;;;;17.27;6.50;;;;;;;;;;5111955;28;20063;-72
2022/10/28 10:27:20;;;;;;;18.05;6.40;;;;;;;;;;5111320;28;20094;-72
2022/10/28 10:29:51;;;;;;;16.15;6.35;;;;;;;;;;5111822;28;20062;-72
2022/10/28 10:32:32;;;;;;;22.77;6.97;;;;;;;;;;5092285;28;20047;-71
2022/10/28 10:35:01;;;;;;;20.98;7.30;;;;;;;;;;5105489;28;20039;-72
2022/10/28 10:37:28;;;;;;;17.40;6.45;;;;;;;;;;5111885;28;20520;-72
2022/10/28 10:39:59;;;;;;;14.95;6.20;;;;;;;;;;5112338;28;20509;-72
2022/10/28 10:42:26;;;;;;;21.23;6.93;;;;;;;;;;5110362;28;20082;-72
2022/10/28 10:45:15;;;;;;;15.35;6.38;;;;;;;;;;5110385;28;20126;-72
2022/10/28 10:47:41;;;;;;;21.10;6.82;;;;;;;;;;5083236;28;20108;-72
2022/10/28 10:50:19;;;;;;;17.83;6.88;;;;;;;;;;5109780;28;20414;-72
2022/10/28 10:52:53;;;;;;;19.33;6.80;;;;;;;;;;5112126;28;20046;-72
2022/10/28 10:55:43;;;;;;;17.42;6.68;;;;;;;;;;5105255;28;21001;-72
2022/10/28 10:58:16;;;;;;;17.58;6.68;;;;;;;;;;5088101;28;20072;-72
2022/10/28 11:00:49;;;;;;;16.17;6.50;;;;;;;;;;5103940;28;20039;-72
2022/10/28 11:03:21;;;;;;;18.52;6.50;;;;;;;;;;5111919;28;20074;-72
2022/10/28 11:05:52;;;;;;;18.42;7.18;;;;;;;;;;5084258;28;20048;-72
2022/10/28 11:08:27;;;;;;;15.52;6.68;;;;;;;;;;5092181;28;20052;-72
2022/10/28 11:11:23;;;;;;;20.00;6.70;;;;;;;;;;5091803;28;20052;-72
2022/10/28 11:14:02;;;;;;;20.00;6.95;;;;;;;;;;5070860;28;20051;-71
2022/10/28 11:16:28;;;;;;;16.67;6.70;;;;;;;;;;5105321;28;20051;-71
2022/10/28 11:18:53;;;;;;;19.85;6.75;;;;;;;;;;5111179;28;20035;-72
2022/10/28 11:21:41;;;;;;;19.98;6.50;;;;;;;;;;5112109;28;20411;-71
2022/10/28 11:24:07;;;;;;;18.33;7.28;;;;;;;;;;5094529;28;20044;-72
2022/10/28 11:26:37;;;;;;;18.00;6.63;;;;;;;;;;5095593;28;20429;-71
2022/10/28 11:29:11;;;;;;;17.00;6.55;;;;;;;;;;5077335;28;20158;-72
2022/10/28 11:31:42;;;;;;;15.93;6.57;;;;;;;;;;5095506;28;20131;-71
2022/10/28 11:34:23;;;;;;;21.75;6.38;;;;;;;;;;5107197;28;20101;-72
2022/10/28 11:37:13;;;;;;;16.63;6.25;;;;;;;;;;5116017;28;20047;-72
2022/10/28 11:39:48;;;;;;;18.10;6.05;;;;;;;;;;5013045;28;20440;-71
2022/10/28 11:42:23;;;;;;;19.08;6.15;;;;;;;;;;5013180;28;20199;-71
2022/10/28 11:44:58;;;;;;;16.98;5.75;;;;;;;;;;5013194;28;20100;-71
2022/10/28 11:47:36;;;;;;;18.50;6.35;;;;;;;;;;5013175;28;20484;-71
2022/10/28 11:50:07;;;;;;;19.60;5.78;;;;;;;;;;5012592;28;20053;-71
2022/10/28 11:52:33;;;;;;;22.38;6.35;;;;;;;;;;5009378;28;20081;-72
2022/10/28 11:55:02;;;;;;;17.33;6.00;;;;;;;;;;5011094;28;20077;-72
2022/10/28 12:00:14;;;;;;;19.75;6.07;;;;;;;;;;5127296;27;1223134;-73
2022/10/28 12:02:52;;;;;;;18.75;5.72;;;;;;;;;;5151164;27;20039;-73
2022/10/28 12:05:22;;;;;;;19.08;5.88;;;;;;;;;;5145506;27;20047;-73
2022/10/28 12:08:00;;;;;;;15.23;5.53;;;;;;;;;;5106178;28;20051;-74
2022/10/28 12:10:32;;;;;;;20.23;5.65;;;;;;;;;;5130207;28;20141;-71
2022/10/28 12:12:58;;;;;;;13.88;5.35;;;;;;;;;;5129422;28;20067;-72
2022/10/28 12:15:24;;;;;;;19.90;6.35;;;;;;;;;;5129462;27;20091;-73
2022/10/28 12:17:57;;;;;;;17.30;6.35;;;;;;;;;;5128489;28;20044;-73
2022/10/28 12:20:26;;;;;;;18.08;6.00;;;;;;;;;;5129693;28;20048;-74
2022/10/28 12:22:55;;;;;;;18.23;5.95;;;;;;;;;;5124998;28;20040;-73
2022/10/28 12:25:23;;;;;;;18.25;6.22;;;;;;;;;;5126259;27;20046;-73
2022/10/28 12:27:51;;;;;;;19.08;6.63;;;;;;;;;;5107460;28;20048;-73
2022/10/28 12:30:28;;;;;;;16.80;6.20;;;;;;;;;;5127725;28;20044;-72
2022/10/28 12:32:59;;;;;;;15.02;6.22;;;;;;;;;;5121460;28;20401;-73
2022/10/28 12:35:25;;;;;;;;;;;;;;;;;;5107363;28;20086;-73
2022/10/28 12:37:54;;;;;;;21.42;6.28;;;;;;;;;;5102584;28;20028;-72
2022/10/28 12:40:34;;;;;;;22.02;6.03;;;;;;;;;;5117067;28;20047;-73
2022/10/28 12:43:04;;;;;;;21.20;5.95;;;;;;;;;;5126002;28;20043;-73
2022/10/28 12:45:31;;;;;;;16.33;6.13;;;;;;;;;;5128664;28;20035;-73
2022/10/28 12:48:04;;;;;;;18.67;5.78;;;;;;;;;;5129441;28;20114;-73
2022/10/28 12:50:31;;;;;;;18.80;5.53;;;;;;;;;;5107733;28;20111;-72
2022/10/28 12:53:02;;;;;;;15.80;5.50;;;;;;;;;;5121198;28;20051;-72
2022/10/28 12:55:37;;;;;;;16.67;6.50;;;;;;;;;;5129591;28;20047;-72
2022/10/28 12:58:09;;;;;;;18.85;7.00;;;;;;;;;;5127846;28;20067;-72
2022/10/28 13:00:37;;;;;;;19.60;6.43;;;;;;;;;;5124962;28;20051;-72
2022/10/28 13:03:04;;;;;;;20.83;6.50;;;;;;;;;;5129055;28;20084;-73
2022/10/28 13:05:42;;;;;;;18.65;6.70;;;;;;;;;;5126562;27;20035;-73
2022/10/28 13:08:27;;;;;;;19.63;5.60;;;;;;;;;;5127621;28;20431;-73
2022/10/28 13:11:12;;;;;;;17.45;6.47;;;;;;;;;;5113630;28;20043;-72
2022/10/28 13:13:45;;;;;;;15.98;5.97;;;;;;;;;;5096402;28;20050;-72
2022/10/28 13:16:34;;;;;;;21.17;6.25;;;;;;;;;;5115530;28;20048;-73
2022/10/28 13:19:18;;;;;;;16.05;6.18;;;;;;;;;;5115181;28;20054;-71
2022/10/28 13:21:44;;;;;;;22.25;6.32;;;;;;;;;;5113224;28;20047;-72
2022/10/28 13:24:22;;;;;;;18.67;6.32;;;;;;;;;;5110411;28;20055;-72
2022/10/28 13:26:48;;;;;;;21.92;6.25;;;;;;;;;;5099426;28;20048;-73
2022/10/28 13:29:25;;;;;;;20.15;7.13;;;;;;;;;;5094616;28;20097;-73
2022/10/28 13:31:51;;;;;;;21.15;6.90;;;;;;;;;;5094506;28;20075;-73
2022/10/28 13:34:20;;;;;;;19.75;6.35;;;;;;;;;;5112752;28;20127;-73
2022/10/28 13:36:48;;;;;;;20.85;6.70;;;;;;;;;;5113221;28;20048;-73
2022/10/28 13:39:23;;;;;;;22.20;6.80;;;;;;;;;;5109666;28;20127;-73
2022/10/28 13:42:09;;;;;;;18.63;6.57;;;;;;;;;;5102024;28;20477;-72
2022/10/28 13:44:46;;;;;;;19.38;6.32;;;;;;;;;;5104581;27;20401;-72
2022/10/28 13:47:12;;;;;;;21.15;7.18;;;;;;;;;;5111406;28;20493;-73
2022/10/28 13:49:40;;;;;;;17.60;6.72;;;;;;;;;;5108472;27;20065;-73
2022/10/28 13:52:06;;;;;;;19.67;6.95;;;;;;;;;;5110122;28;20127;-72
2022/10/28 13:54:44;;;;;;;21.35;7.93;;;;;;;;;;5107020;28;20047;-71
2022/10/28 13:57:18;;;;;;;22.02;6.78;;;;;;;;;;5099143;28;20051;-71
2022/10/28 13:59:49;;;;;;;19.95;6.63;;;;;;;;;;5112278;28;20413;-72
2022/10/28 14:02:18;;;;;;;21.92;7.28;;;;;;;;;;5111751;28;20458;-71
2022/10/28 14:04:53;;;;;;;17.95;6.43;;;;;;;;;;5107290;28;20113;-68
2022/10/28 14:07:20;;;;;;;15.70;6.13;;;;;;;;;;5109153;28;20039;-68
2022/10/28 14:09:48;;;;;;;22.52;6.53;;;;;;;;;;5099879;28;20063;-68
2022/10/28 14:12:19;;;;;;;19.33;6.85;;;;;;;;;;5113516;28;20043;-69
2022/10/28 14:14:57;;;;;;;17.55;6.13;;;;;;;;;;5114008;28;20078;-68
2022/10/28 14:17:25;;;;;;;19.70;6.43;;;;;;;;;;5106561;28;20390;-68
2022/10/28 14:19:52;;;;;;;19.85;6.82;;;;;;;;;;5077328;28;20040;-69
2022/10/28 14:22:29;;;;;;;17.65;6.22;;;;;;;;;;5111916;28;20035;-68
2022/10/28 14:24:55;;;;;;;19.58;6.80;;;;;;;;;;5113793;28;20334;-68
2022/10/28 14:27:27;;;;;;;20.08;6.90;;;;;;;;;;5113867;28;20542;-68
2022/10/28 14:29:56;;;;;;;19.98;6.32;;;;;;;;;;5112406;28;20046;-68
2022/10/28 14:32:31;;;;;;;19.27;6.28;;;;;;;;;;5112741;28;20400;-69
2022/10/28 14:35:15;;;;;;;16.15;6.18;;;;;;;;;;5112505;28;20488;-69
2022/10/28 14:38:00;;;;;;;20.52;6.00;;;;;;;;;;5108879;28;20047;-71
2022/10/28 14:40:41;;;;;;;29.88;6.50;;;;;;;;;;5112230;28;20047;-70